Victorious Ace — 3FTR4 — position and weather

sailwx.info

Track history (hours):
 
Tides and Currents Weather Stations Pressure Air Temp Water Temp Dewpoint Dewpoint Depression Visibility Wind Speed Wind Dir Waves Ship Positions

Victorious Ace

Last reported at 2018-Jul-18 11:35 UTC. Time now 2018-Jul-19 09:34 UTC.
Position N 34°44' E 139°45'.

Length 200 m; draft 9.3 m.

Type: Ship. MMSI: 356541000.

Date/timePositionNaut miles runAvg speedWind from/ knotsBaromVisibWave heightAir tempDewpointWater temp
2018-Jul-18 11:35N 34°44' E 139°45'321.3
2018-Jul-18 11:28N 34°46' E 139°44'1819.0
2018-Jul-18 10:30N 35°05' E 139°42'713.7
2018-Jul-18 10:00N 35°11' E 139°45'510.1
2018-Jul-18 09:30N 35°16' E 139°46'612.2
2018-Jul-18 09:00N 35°21' E 139°42'611.7
2018-Jul-18 08:30N 35°27' E 139°43'2 3.2
2018-Jul-18 08:00N 35°28' E 139°41'0 0.0
2018-Jul-18 07:28N 35°28' E 139°41'0 0.0
2018-Jul-18 06:58N 35°28' E 139°41'0 0.0
2018-Jul-18 06:28N 35°28' E 139°41'0 0.0
2018-Jul-18 05:58N 35°28' E 139°41'0 0.0
2018-Jul-18 05:28N 35°28' E 139°41'0 0.0
2018-Jul-18 04:58N 35°28' E 139°41'0 0.0
2018-Jul-18 04:28N 35°28' E 139°41'0 0.0
2018-Jul-18 03:58N 35°28' E 139°41'0 0.0
2018-Jul-18 03:28N 35°28' E 139°41'0 0.0
2018-Jul-18 02:58N 35°28' E 139°41'0 0.0
2018-Jul-18 02:28N 35°28' E 139°41'0 0.0
2018-Jul-18 01:58N 35°28' E 139°41'0 0.0
2018-Jul-18 01:28N 35°28' E 139°41'0 0.0
2018-Jul-18 00:58N 35°28' E 139°41'0 0.0
2018-Jul-18 00:28N 35°28' E 139°41'0 0.0
2018-Jul-17 23:58N 35°28' E 139°41'0 0.0
2018-Jul-17 23:28N 35°28' E 139°41'0 0.0
2018-Jul-17 22:58N 35°28' E 139°41'0 0.0
2018-Jul-17 22:30N 35°28' E 139°41'1 2.3
2018-Jul-17 22:00N 35°28' E 139°43'4 8.4
2018-Jul-17 21:30N 35°24' E 139°46'511.2
2018-Jul-17 21:00N 35°19' E 139°44'510.9
2018-Jul-17 20:30N 35°14' E 139°47'611.1
2018-Jul-17 20:00N 35°09' E 139°46'510.1
2018-Jul-17 19:30N 35°04' E 139°44'3 5.5
2018-Jul-17 19:00N 35°02' E 139°42'5 9.8
2018-Jul-17 18:30N 34°57' E 139°41'510.2
2018-Jul-17 18:00N 34°52' E 139°40'611.2
2018-Jul-17 17:26N 34°46' E 139°38'  
2018-Jul-14 16:45N 34°46' E 130°02'518.9
2018-Jul-14 16:30N 34°50' E 129°59'1018.6
2018-Jul-14 16:00N 34°58' E 129°52'  
Track history (hours):
 
Tides and Currents Weather Stations Pressure Air Temp Water Temp Dewpoint Dewpoint Depression Visibility Wind Speed Wind Dir Waves Ship Positions

Victorious Ace

Last reported at 2018-Jul-18 11:35 UTC. Time now 2018-Jul-19 09:34 UTC.
Position N 34°44' E 139°45'.

Length 200 m; draft 9.3 m.

Type: Ship. MMSI: 356541000.

Date/timePositionNaut miles runAvg speedWind from/ knotsBaromVisibWave heightAir tempDewpointWater temp
2018-Jul-18 11:35N 34°44' E 139°45'321.3
2018-Jul-18 11:28N 34°46' E 139°44'1819.0
2018-Jul-18 10:30N 35°05' E 139°42'713.7
2018-Jul-18 10:00N 35°11' E 139°45'510.1
2018-Jul-18 09:30N 35°16' E 139°46'612.2
2018-Jul-18 09:00N 35°21' E 139°42'611.7
2018-Jul-18 08:30N 35°27' E 139°43'2 3.2
2018-Jul-18 08:00N 35°28' E 139°41'0 0.0
2018-Jul-18 07:28N 35°28' E 139°41'0 0.0
2018-Jul-18 06:58N 35°28' E 139°41'0 0.0
2018-Jul-18 06:28N 35°28' E 139°41'0 0.0
2018-Jul-18 05:58N 35°28' E 139°41'0 0.0
2018-Jul-18 05:28N 35°28' E 139°41'0 0.0
2018-Jul-18 04:58N 35°28' E 139°41'0 0.0
2018-Jul-18 04:28N 35°28' E 139°41'0 0.0
2018-Jul-18 03:58N 35°28' E 139°41'0 0.0
2018-Jul-18 03:28N 35°28' E 139°41'0 0.0
2018-Jul-18 02:58N 35°28' E 139°41'0 0.0
2018-Jul-18 02:28N 35°28' E 139°41'0 0.0
2018-Jul-18 01:58N 35°28' E 139°41'0 0.0
2018-Jul-18 01:28N 35°28' E 139°41'0 0.0
2018-Jul-18 00:58N 35°28' E 139°41'0 0.0
2018-Jul-18 00:28N 35°28' E 139°41'0 0.0
2018-Jul-17 23:58N 35°28' E 139°41'0 0.0
2018-Jul-17 23:28N 35°28' E 139°41'0 0.0
2018-Jul-17 22:58N 35°28' E 139°41'0 0.0
2018-Jul-17 22:30N 35°28' E 139°41'1 2.3
2018-Jul-17 22:00N 35°28' E 139°43'4 8.4
2018-Jul-17 21:30N 35°24' E 139°46'511.2
2018-Jul-17 21:00N 35°19' E 139°44'510.9
2018-Jul-17 20:30N 35°14' E 139°47'611.1
2018-Jul-17 20:00N 35°09' E 139°46'510.1
2018-Jul-17 19:30N 35°04' E 139°44'3 5.5
2018-Jul-17 19:00N 35°02' E 139°42'5 9.8
2018-Jul-17 18:30N 34°57' E 139°41'510.2
2018-Jul-17 18:00N 34°52' E 139°40'611.2
2018-Jul-17 17:26N 34°46' E 139°38'  
2018-Jul-14 16:45N 34°46' E 130°02'518.9
2018-Jul-14 16:30N 34°50' E 129°59'1018.6
2018-Jul-14 16:00N 34°58' E 129°52'  

Dump ship's entire track history